sensor_id;sensor_type;location;lat;lon;timestamp;P1;durP1;ratioP1;P2;durP2;ratioP2
20488;SDS011;10403;54.092;12.122;2022-07-23T00:00:28;5.57;;;1.50;;
20488;SDS011;10403;54.092;12.122;2022-07-23T00:03:04;2.30;;;1.40;;
20488;SDS011;10403;54.092;12.122;2022-07-23T00:05:32;4.67;;;1.70;;
20488;SDS011;10403;54.092;12.122;2022-07-23T00:08:00;3.57;;;1.53;;
20488;SDS011;10403;54.092;12.122;2022-07-23T00:10:28;3.80;;;1.40;;
20488;SDS011;10403;54.092;12.122;2022-07-23T00:12:55;3.27;;;1.50;;
20488;SDS011;10403;54.092;12.122;2022-07-23T00:15:22;4.27;;;1.40;;
20488;SDS011;10403;54.092;12.122;2022-07-23T00:17:49;4.27;;;1.53;;
20488;SDS011;10403;54.092;12.122;2022-07-23T00:20:17;4.67;;;1.70;;
20488;SDS011;10403;54.092;12.122;2022-07-23T00:25:22;6.30;;;1.60;;
20488;SDS011;10403;54.092;12.122;2022-07-23T00:27:54;4.67;;;1.57;;
20488;SDS011;10403;54.092;12.122;2022-07-23T00:30:23;6.70;;;1.63;;
20488;SDS011;10403;54.092;12.122;2022-07-23T00:32:52;4.20;;;1.70;;
20488;SDS011;10403;54.092;12.122;2022-07-23T00:35:28;4.00;;;1.57;;
20488;SDS011;10403;54.092;12.122;2022-07-23T00:37:59;4.13;;;1.70;;
20488;SDS011;10403;54.092;12.122;2022-07-23T00:40:30;4.57;;;1.53;;
20488;SDS011;10403;54.092;12.122;2022-07-23T00:42:59;5.70;;;1.60;;
20488;SDS011;10403;54.092;12.122;2022-07-23T00:45:29;4.10;;;1.57;;
20488;SDS011;10403;54.092;12.122;2022-07-23T00:47:58;3.87;;;1.27;;
20488;SDS011;10403;54.092;12.122;2022-07-23T00:50:27;2.90;;;1.30;;
20488;SDS011;10403;54.092;12.122;2022-07-23T00:52:56;3.10;;;1.60;;
20488;SDS011;10403;54.092;12.122;2022-07-23T00:55:24;6.77;;;1.30;;
20488;SDS011;10403;54.092;12.122;2022-07-23T00:57:52;4.47;;;1.50;;
20488;SDS011;10403;54.092;12.122;2022-07-23T01:00:22;3.23;;;1.67;;
20488;SDS011;10403;54.092;12.122;2022-07-23T01:02:51;6.20;;;1.60;;
20488;SDS011;10403;54.092;12.122;2022-07-23T01:05:19;3.83;;;1.40;;
20488;SDS011;10403;54.092;12.122;2022-07-23T01:07:50;2.97;;;1.20;;
20488;SDS011;10403;54.092;12.122;2022-07-23T01:10:23;3.83;;;1.60;;
20488;SDS011;10403;54.092;12.122;2022-07-23T01:13:05;3.90;;;1.37;;
20488;SDS011;10403;54.092;12.122;2022-07-23T01:15:36;3.17;;;1.47;;
20488;SDS011;10403;54.092;12.122;2022-07-23T01:18:06;3.97;;;1.50;;
20488;SDS011;10403;54.092;12.122;2022-07-23T01:20:34;6.70;;;1.80;;
20488;SDS011;10403;54.092;12.122;2022-07-23T01:23:02;4.23;;;1.40;;
20488;SDS011;10403;54.092;12.122;2022-07-23T01:25:29;7.03;;;1.40;;
20488;SDS011;10403;54.092;12.122;2022-07-23T01:27:57;5.23;;;1.80;;
20488;SDS011;10403;54.092;12.122;2022-07-23T01:30:25;3.53;;;1.67;;
20488;SDS011;10403;54.092;12.122;2022-07-23T01:32:52;2.97;;;1.20;;
20488;SDS011;10403;54.092;12.122;2022-07-23T01:35:19;3.00;;;1.40;;
20488;SDS011;10403;54.092;12.122;2022-07-23T01:37:46;4.37;;;1.67;;
20488;SDS011;10403;54.092;12.122;2022-07-23T01:40:13;5.00;;;1.50;;
20488;SDS011;10403;54.092;12.122;2022-07-23T01:42:41;5.63;;;1.93;;
20488;SDS011;10403;54.092;12.122;2022-07-23T01:45:08;6.30;;;1.50;;
20488;SDS011;10403;54.092;12.122;2022-07-23T01:47:35;2.37;;;1.37;;
20488;SDS011;10403;54.092;12.122;2022-07-23T01:50:03;5.13;;;1.50;;
20488;SDS011;10403;54.092;12.122;2022-07-23T01:52:30;2.83;;;1.40;;
20488;SDS011;10403;54.092;12.122;2022-07-23T01:54:57;7.80;;;1.90;;
20488;SDS011;10403;54.092;12.122;2022-07-23T01:57:24;3.43;;;1.60;;
20488;SDS011;10403;54.092;12.122;2022-07-23T01:59:51;5.87;;;1.80;;
20488;SDS011;10403;54.092;12.122;2022-07-23T02:02:18;6.30;;;1.60;;
20488;SDS011;10403;54.092;12.122;2022-07-23T02:04:45;5.73;;;1.57;;
20488;SDS011;10403;54.092;12.122;2022-07-23T02:07:12;4.97;;;1.70;;
20488;SDS011;10403;54.092;12.122;2022-07-23T02:09:39;6.80;;;1.83;;
20488;SDS011;10403;54.092;12.122;2022-07-23T02:12:07;5.40;;;1.60;;
20488;SDS011;10403;54.092;12.122;2022-07-23T02:14:34;7.63;;;1.43;;
20488;SDS011;10403;54.092;12.122;2022-07-23T02:17:04;3.67;;;1.40;;
20488;SDS011;10403;54.092;12.122;2022-07-23T02:19:31;5.20;;;1.67;;
20488;SDS011;10403;54.092;12.122;2022-07-23T02:21:58;6.10;;;1.80;;
20488;SDS011;10403;54.092;12.122;2022-07-23T02:24:25;4.70;;;1.53;;
20488;SDS011;10403;54.092;12.122;2022-07-23T02:26:52;3.93;;;1.53;;
20488;SDS011;10403;54.092;12.122;2022-07-23T02:29:19;8.93;;;1.67;;
20488;SDS011;10403;54.092;12.122;2022-07-23T02:31:46;6.17;;;1.77;;
20488;SDS011;10403;54.092;12.122;2022-07-23T02:34:13;4.90;;;1.50;;
20488;SDS011;10403;54.092;12.122;2022-07-23T02:36:40;5.93;;;1.80;;
20488;SDS011;10403;54.092;12.122;2022-07-23T02:39:07;5.63;;;1.90;;
20488;SDS011;10403;54.092;12.122;2022-07-23T02:41:34;7.60;;;1.67;;
20488;SDS011;10403;54.092;12.122;2022-07-23T02:44:02;8.10;;;1.83;;
20488;SDS011;10403;54.092;12.122;2022-07-23T02:46:29;4.83;;;1.80;;
20488;SDS011;10403;54.092;12.122;2022-07-23T02:48:56;7.53;;;1.77;;
20488;SDS011;10403;54.092;12.122;2022-07-23T02:51:24;4.57;;;1.87;;
20488;SDS011;10403;54.092;12.122;2022-07-23T02:53:51;5.80;;;1.90;;
20488;SDS011;10403;54.092;12.122;2022-07-23T02:56:17;3.87;;;1.73;;
20488;SDS011;10403;54.092;12.122;2022-07-23T02:58:45;2.73;;;1.97;;
20488;SDS011;10403;54.092;12.122;2022-07-23T03:01:12;3.60;;;1.70;;
20488;SDS011;10403;54.092;12.122;2022-07-23T03:03:39;7.53;;;2.20;;
20488;SDS011;10403;54.092;12.122;2022-07-23T03:06:06;4.00;;;1.90;;
20488;SDS011;10403;54.092;12.122;2022-07-23T03:08:33;5.30;;;1.87;;
20488;SDS011;10403;54.092;12.122;2022-07-23T03:11:00;3.27;;;1.57;;
20488;SDS011;10403;54.092;12.122;2022-07-23T03:13:27;4.17;;;1.87;;
20488;SDS011;10403;54.092;12.122;2022-07-23T03:15:57;6.53;;;1.67;;
20488;SDS011;10403;54.092;12.122;2022-07-23T03:18:24;4.60;;;1.77;;
20488;SDS011;10403;54.092;12.122;2022-07-23T03:20:51;3.93;;;1.93;;
20488;SDS011;10403;54.092;12.122;2022-07-23T03:23:18;5.27;;;1.87;;
20488;SDS011;10403;54.092;12.122;2022-07-23T03:25:45;3.30;;;2.03;;
20488;SDS011;10403;54.092;12.122;2022-07-23T03:28:19;4.03;;;1.80;;
20488;SDS011;10403;54.092;12.122;2022-07-23T03:30:46;7.07;;;1.67;;
20488;SDS011;10403;54.092;12.122;2022-07-23T03:33:17;7.20;;;2.10;;
20488;SDS011;10403;54.092;12.122;2022-07-23T03:35:47;5.87;;;1.80;;
20488;SDS011;10403;54.092;12.122;2022-07-23T03:38:16;7.27;;;1.60;;
20488;SDS011;10403;54.092;12.122;2022-07-23T03:40:45;4.33;;;1.77;;
20488;SDS011;10403;54.092;12.122;2022-07-23T03:43:12;2.83;;;1.67;;
20488;SDS011;10403;54.092;12.122;2022-07-23T03:45:39;5.43;;;1.53;;
20488;SDS011;10403;54.092;12.122;2022-07-23T03:48:06;6.90;;;2.00;;
20488;SDS011;10403;54.092;12.122;2022-07-23T03:50:33;5.87;;;1.80;;
20488;SDS011;10403;54.092;12.122;2022-07-23T03:53:01;6.87;;;2.10;;
20488;SDS011;10403;54.092;12.122;2022-07-23T03:55:28;4.93;;;1.80;;
20488;SDS011;10403;54.092;12.122;2022-07-23T03:57:55;6.10;;;1.73;;
20488;SDS011;10403;54.092;12.122;2022-07-23T04:00:22;3.83;;;1.40;;
20488;SDS011;10403;54.092;12.122;2022-07-23T04:02:49;4.60;;;1.60;;
20488;SDS011;10403;54.092;12.122;2022-07-23T04:05:16;5.20;;;1.67;;
20488;SDS011;10403;54.092;12.122;2022-07-23T04:07:44;3.83;;;1.40;;
20488;SDS011;10403;54.092;12.122;2022-07-23T04:10:11;5.30;;;1.60;;
20488;SDS011;10403;54.092;12.122;2022-07-23T04:12:38;4.97;;;2.00;;
20488;SDS011;10403;54.092;12.122;2022-07-23T04:15:06;4.80;;;1.80;;
20488;SDS011;10403;54.092;12.122;2022-07-23T04:17:35;5.00;;;1.50;;
20488;SDS011;10403;54.092;12.122;2022-07-23T04:20:02;4.57;;;1.70;;
20488;SDS011;10403;54.092;12.122;2022-07-23T04:22:30;5.57;;;1.53;;
20488;SDS011;10403;54.092;12.122;2022-07-23T04:24:57;2.00;;;1.60;;
20488;SDS011;10403;54.092;12.122;2022-07-23T04:27:24;8.20;;;2.10;;
20488;SDS011;10403;54.092;12.122;2022-07-23T04:29:51;3.90;;;1.50;;
20488;SDS011;10403;54.092;12.122;2022-07-23T04:32:18;4.23;;;1.70;;
20488;SDS011;10403;54.092;12.122;2022-07-23T04:34:45;7.63;;;1.53;;
20488;SDS011;10403;54.092;12.122;2022-07-23T04:37:12;6.30;;;1.70;;
20488;SDS011;10403;54.092;12.122;2022-07-23T04:39:39;3.83;;;1.30;;
20488;SDS011;10403;54.092;12.122;2022-07-23T04:42:06;4.07;;;1.60;;
20488;SDS011;10403;54.092;12.122;2022-07-23T04:44:33;4.07;;;1.70;;
20488;SDS011;10403;54.092;12.122;2022-07-23T04:47:01;7.17;;;1.50;;
20488;SDS011;10403;54.092;12.122;2022-07-23T04:49:28;7.23;;;1.40;;
20488;SDS011;10403;54.092;12.122;2022-07-23T04:51:55;4.47;;;1.87;;
20488;SDS011;10403;54.092;12.122;2022-07-23T04:54:22;6.20;;;1.63;;
20488;SDS011;10403;54.092;12.122;2022-07-23T04:56:51;7.97;;;1.67;;
20488;SDS011;10403;54.092;12.122;2022-07-23T04:59:18;4.80;;;1.70;;
20488;SDS011;10403;54.092;12.122;2022-07-23T05:01:45;4.67;;;1.67;;
20488;SDS011;10403;54.092;12.122;2022-07-23T05:04:12;4.83;;;1.70;;
20488;SDS011;10403;54.092;12.122;2022-07-23T05:06:39;3.80;;;1.17;;
20488;SDS011;10403;54.092;12.122;2022-07-23T05:09:07;5.00;;;1.30;;
20488;SDS011;10403;54.092;12.122;2022-07-23T05:11:34;3.40;;;1.47;;
20488;SDS011;10403;54.092;12.122;2022-07-23T05:14:01;4.33;;;1.57;;
20488;SDS011;10403;54.092;12.122;2022-07-23T05:16:28;6.27;;;2.00;;
20488;SDS011;10403;54.092;12.122;2022-07-23T05:18:55;7.33;;;1.73;;
20488;SDS011;10403;54.092;12.122;2022-07-23T05:21:22;5.93;;;1.70;;
20488;SDS011;10403;54.092;12.122;2022-07-23T05:23:49;7.23;;;1.50;;
20488;SDS011;10403;54.092;12.122;2022-07-23T05:26:16;6.97;;;1.47;;
20488;SDS011;10403;54.092;12.122;2022-07-23T05:28:43;7.80;;;1.50;;
20488;SDS011;10403;54.092;12.122;2022-07-23T05:31:15;4.73;;;1.37;;
20488;SDS011;10403;54.092;12.122;2022-07-23T05:33:42;6.87;;;1.47;;
20488;SDS011;10403;54.092;12.122;2022-07-23T05:36:10;4.73;;;1.53;;
20488;SDS011;10403;54.092;12.122;2022-07-23T05:38:37;8.00;;;1.87;;
20488;SDS011;10403;54.092;12.122;2022-07-23T05:41:04;3.90;;;1.20;;
20488;SDS011;10403;54.092;12.122;2022-07-23T05:43:31;1.93;;;1.17;;
20488;SDS011;10403;54.092;12.122;2022-07-23T05:45:58;3.70;;;1.60;;
20488;SDS011;10403;54.092;12.122;2022-07-23T05:48:25;5.30;;;1.40;;
20488;SDS011;10403;54.092;12.122;2022-07-23T05:50:53;8.17;;;1.50;;
20488;SDS011;10403;54.092;12.122;2022-07-23T05:53:20;5.67;;;1.70;;
20488;SDS011;10403;54.092;12.122;2022-07-23T05:55:47;8.17;;;1.67;;
20488;SDS011;10403;54.092;12.122;2022-07-23T05:58:14;4.40;;;1.20;;
20488;SDS011;10403;54.092;12.122;2022-07-23T06:00:41;6.43;;;1.67;;
20488;SDS011;10403;54.092;12.122;2022-07-23T06:03:08;4.23;;;1.40;;
20488;SDS011;10403;54.092;12.122;2022-07-23T06:05:35;3.17;;;1.73;;
20488;SDS011;10403;54.092;12.122;2022-07-23T06:08:02;7.03;;;1.50;;
20488;SDS011;10403;54.092;12.122;2022-07-23T06:10:29;4.00;;;1.50;;
20488;SDS011;10403;54.092;12.122;2022-07-23T06:12:56;3.80;;;1.40;;
20488;SDS011;10403;54.092;12.122;2022-07-23T06:15:28;2.90;;;1.30;;
20488;SDS011;10403;54.092;12.122;2022-07-23T06:17:57;9.07;;;1.67;;
20488;SDS011;10403;54.092;12.122;2022-07-23T06:20:24;4.10;;;1.13;;
20488;SDS011;10403;54.092;12.122;2022-07-23T06:22:51;9.32;;;1.60;;
20488;SDS011;10403;54.092;12.122;2022-07-23T06:25:18;6.63;;;1.50;;
20488;SDS011;10403;54.092;12.122;2022-07-23T06:27:46;3.70;;;1.43;;
20488;SDS011;10403;54.092;12.122;2022-07-23T06:30:14;4.70;;;1.40;;
20488;SDS011;10403;54.092;12.122;2022-07-23T06:32:45;6.03;;;1.47;;
20488;SDS011;10403;54.092;12.122;2022-07-23T06:35:15;4.27;;;1.67;;
20488;SDS011;10403;54.092;12.122;2022-07-23T06:37:44;11.20;;;1.60;;
20488;SDS011;10403;54.092;12.122;2022-07-23T06:40:13;2.83;;;1.40;;
20488;SDS011;10403;54.092;12.122;2022-07-23T06:42:41;5.67;;;1.07;;
20488;SDS011;10403;54.092;12.122;2022-07-23T06:45:08;5.13;;;1.07;;
20488;SDS011;10403;54.092;12.122;2022-07-23T06:47:35;4.97;;;1.20;;
20488;SDS011;10403;54.092;12.122;2022-07-23T06:50:03;3.90;;;1.40;;
20488;SDS011;10403;54.092;12.122;2022-07-23T06:52:31;7.23;;;1.70;;
20488;SDS011;10403;54.092;12.122;2022-07-23T06:54:58;4.47;;;1.07;;
20488;SDS011;10403;54.092;12.122;2022-07-23T06:57:25;3.83;;;1.30;;
20488;SDS011;10403;54.092;12.122;2022-07-23T06:59:53;9.43;;;1.40;;
20488;SDS011;10403;54.092;12.122;2022-07-23T07:02:21;7.10;;;1.27;;
20488;SDS011;10403;54.092;12.122;2022-07-23T07:04:49;4.50;;;1.10;;
20488;SDS011;10403;54.092;12.122;2022-07-23T07:07:16;3.17;;;1.10;;
20488;SDS011;10403;54.092;12.122;2022-07-23T07:09:43;3.00;;;1.10;;
20488;SDS011;10403;54.092;12.122;2022-07-23T07:12:13;3.47;;;1.17;;
20488;SDS011;10403;54.092;12.122;2022-07-23T07:14:41;1.20;;;0.80;;
20488;SDS011;10403;54.092;12.122;2022-07-23T07:17:08;4.23;;;1.10;;
20488;SDS011;10403;54.092;12.122;2022-07-23T07:19:36;2.90;;;1.00;;
20488;SDS011;10403;54.092;12.122;2022-07-23T07:22:04;4.70;;;1.00;;
20488;SDS011;10403;54.092;12.122;2022-07-23T07:24:31;7.53;;;1.13;;
20488;SDS011;10403;54.092;12.122;2022-07-23T07:27:03;3.13;;;0.97;;
20488;SDS011;10403;54.092;12.122;2022-07-23T07:29:31;3.93;;;1.23;;
20488;SDS011;10403;54.092;12.122;2022-07-23T07:31:58;2.47;;;1.10;;
20488;SDS011;10403;54.092;12.122;2022-07-23T07:34:25;2.20;;;0.80;;
20488;SDS011;10403;54.092;12.122;2022-07-23T07:36:52;4.60;;;1.10;;
20488;SDS011;10403;54.092;12.122;2022-07-23T07:39:19;4.10;;;1.17;;
20488;SDS011;10403;54.092;12.122;2022-07-23T07:41:46;3.47;;;1.20;;
20488;SDS011;10403;54.092;12.122;2022-07-23T07:44:13;4.77;;;1.00;;
20488;SDS011;10403;54.092;12.122;2022-07-23T07:46:40;3.93;;;1.20;;
20488;SDS011;10403;54.092;12.122;2022-07-23T07:49:08;3.83;;;0.90;;
20488;SDS011;10403;54.092;12.122;2022-07-23T07:51:41;2.10;;;0.93;;
20488;SDS011;10403;54.092;12.122;2022-07-23T07:54:11;3.35;;;0.98;;
20488;SDS011;10403;54.092;12.122;2022-07-23T07:56:39;2.38;;;1.00;;
20488;SDS011;10403;54.092;12.122;2022-07-23T07:59:07;2.50;;;0.95;;
20488;SDS011;10403;54.092;12.122;2022-07-23T08:01:36;2.30;;;1.02;;
20488;SDS011;10403;54.092;12.122;2022-07-23T08:04:03;2.17;;;0.90;;
20488;SDS011;10403;54.092;12.122;2022-07-23T08:06:31;1.73;;;0.90;;
20488;SDS011;10403;54.092;12.122;2022-07-23T08:08:59;1.60;;;0.75;;
20488;SDS011;10403;54.092;12.122;2022-07-23T08:11:26;3.40;;;1.05;;
20488;SDS011;10403;54.092;12.122;2022-07-23T08:13:53;1.80;;;0.90;;
20488;SDS011;10403;54.092;12.122;2022-07-23T08:16:20;1.97;;;0.70;;
20488;SDS011;10403;54.092;12.122;2022-07-23T08:18:47;2.50;;;1.07;;
20488;SDS011;10403;54.092;12.122;2022-07-23T08:21:14;3.80;;;1.30;;
20488;SDS011;10403;54.092;12.122;2022-07-23T08:23:41;2.43;;;1.03;;
20488;SDS011;10403;54.092;12.122;2022-07-23T08:26:08;4.23;;;1.00;;
20488;SDS011;10403;54.092;12.122;2022-07-23T08:28:35;2.65;;;1.10;;
20488;SDS011;10403;54.092;12.122;2022-07-23T08:31:02;2.10;;;0.93;;
20488;SDS011;10403;54.092;12.122;2022-07-23T08:33:31;1.40;;;0.70;;
20488;SDS011;10403;54.092;12.122;2022-07-23T08:36:20;4.40;;;1.00;;
20488;SDS011;10403;54.092;12.122;2022-07-23T08:38:47;1.00;;;0.90;;
20488;SDS011;10403;54.092;12.122;2022-07-23T08:41:14;2.57;;;0.90;;
20488;SDS011;10403;54.092;12.122;2022-07-23T08:43:42;1.87;;;0.70;;
20488;SDS011;10403;54.092;12.122;2022-07-23T08:46:11;8.07;;;1.27;;
20488;SDS011;10403;54.092;12.122;2022-07-23T08:48:40;3.15;;;0.98;;
20488;SDS011;10403;54.092;12.122;2022-07-23T08:51:07;4.38;;;1.10;;
20488;SDS011;10403;54.092;12.122;2022-07-23T08:53:36;2.25;;;0.90;;
20488;SDS011;10403;54.092;12.122;2022-07-23T08:56:05;1.98;;;0.93;;
20488;SDS011;10403;54.092;12.122;2022-07-23T08:58:35;4.15;;;0.75;;
20488;SDS011;10403;54.092;12.122;2022-07-23T09:01:02;1.70;;;0.73;;
20488;SDS011;10403;54.092;12.122;2022-07-23T09:03:31;2.75;;;0.80;;
20488;SDS011;10403;54.092;12.122;2022-07-23T09:06:01;2.40;;;0.77;;
20488;SDS011;10403;54.092;12.122;2022-07-23T09:08:36;2.53;;;1.20;;
20488;SDS011;10403;54.092;12.122;2022-07-23T09:11:06;2.83;;;0.90;;
20488;SDS011;10403;54.092;12.122;2022-07-23T09:13:46;1.52;;;0.80;;
20488;SDS011;10403;54.092;12.122;2022-07-23T09:16:15;2.67;;;0.80;;
20488;SDS011;10403;54.092;12.122;2022-07-23T09:18:51;1.88;;;0.80;;
20488;SDS011;10403;54.092;12.122;2022-07-23T09:23:58;2.40;;;0.98;;
20488;SDS011;10403;54.092;12.122;2022-07-23T09:26:38;2.83;;;0.68;;
20488;SDS011;10403;54.092;12.122;2022-07-23T09:29:15;2.03;;;0.65;;
20488;SDS011;10403;54.092;12.122;2022-07-23T09:34:23;2.15;;;0.93;;
20488;SDS011;10403;54.092;12.122;2022-07-23T09:36:55;1.77;;;0.70;;
20488;SDS011;10403;54.092;12.122;2022-07-23T09:39:34;2.55;;;1.00;;
20488;SDS011;10403;54.092;12.122;2022-07-23T09:42:18;2.30;;;1.02;;
20488;SDS011;10403;54.092;12.122;2022-07-23T09:44:49;3.22;;;0.90;;
20488;SDS011;10403;54.092;12.122;2022-07-23T09:47:20;4.78;;;1.10;;
20488;SDS011;10403;54.092;12.122;2022-07-23T09:50:09;5.22;;;1.27;;
20488;SDS011;10403;54.092;12.122;2022-07-23T09:52:46;4.00;;;0.80;;
20488;SDS011;10403;54.092;12.122;2022-07-23T09:55:18;3.67;;;0.85;;
20488;SDS011;10403;54.092;12.122;2022-07-23T09:57:45;3.30;;;0.80;;
20488;SDS011;10403;54.092;12.122;2022-07-23T10:00:22;2.15;;;0.77;;
20488;SDS011;10403;54.092;12.122;2022-07-23T10:02:50;6.18;;;1.25;;
20488;SDS011;10403;54.092;12.122;2022-07-23T10:05:19;4.40;;;0.80;;
20488;SDS011;10403;54.092;12.122;2022-07-23T10:07:47;3.45;;;0.90;;
20488;SDS011;10403;54.092;12.122;2022-07-23T10:10:18;1.98;;;0.80;;
20488;SDS011;10403;54.092;12.122;2022-07-23T10:12:50;2.20;;;0.82;;
20488;SDS011;10403;54.092;12.122;2022-07-23T10:15:17;2.13;;;0.90;;
20488;SDS011;10403;54.092;12.122;2022-07-23T10:17:45;1.33;;;0.70;;
20488;SDS011;10403;54.092;12.122;2022-07-23T10:20:12;1.83;;;0.80;;
20488;SDS011;10403;54.092;12.122;2022-07-23T10:22:44;3.65;;;0.70;;
20488;SDS011;10403;54.092;12.122;2022-07-23T10:26:35;2.90;;;1.00;;
20488;SDS011;10403;54.092;12.122;2022-07-23T10:38:40;10.55;;;1.40;;
20488;SDS011;10403;54.092;12.122;2022-07-23T10:41:07;2.92;;;1.10;;
20488;SDS011;10403;54.092;12.122;2022-07-23T10:43:35;4.13;;;1.42;;
20488;SDS011;10403;54.092;12.122;2022-07-23T10:49:20;3.00;;;1.30;;
20488;SDS011;10403;54.092;12.122;2022-07-23T10:54:45;2.60;;;0.90;;
20488;SDS011;10403;54.092;12.122;2022-07-23T10:57:21;2.95;;;1.30;;
20488;SDS011;10403;54.092;12.122;2022-07-23T11:02:39;2.45;;;0.80;;
20488;SDS011;10403;54.092;12.122;2022-07-23T11:05:09;5.43;;;1.20;;
20488;SDS011;10403;54.092;12.122;2022-07-23T11:10:35;1.75;;;0.90;;
20488;SDS011;10403;54.092;12.122;2022-07-23T11:19:14;1.73;;;0.93;;
20488;SDS011;10403;54.092;12.122;2022-07-23T11:24:05;3.22;;;1.10;;
20488;SDS011;10403;54.092;12.122;2022-07-23T11:34:35;1.88;;;0.90;;
20488;SDS011;10403;54.092;12.122;2022-07-23T11:37:12;1.83;;;0.60;;
20488;SDS011;10403;54.092;12.122;2022-07-23T11:40:02;2.42;;;0.80;;
20488;SDS011;10403;54.092;12.122;2022-07-23T11:42:35;2.08;;;0.80;;
20488;SDS011;10403;54.092;12.122;2022-07-23T11:45:07;2.25;;;1.00;;
20488;SDS011;10403;54.092;12.122;2022-07-23T11:47:35;2.50;;;1.00;;
20488;SDS011;10403;54.092;12.122;2022-07-23T11:50:03;6.75;;;0.70;;
20488;SDS011;10403;54.092;12.122;2022-07-23T11:52:33;1.38;;;0.98;;
20488;SDS011;10403;54.092;12.122;2022-07-23T11:55:02;2.65;;;0.95;;
20488;SDS011;10403;54.092;12.122;2022-07-23T11:57:39;4.55;;;1.00;;
20488;SDS011;10403;54.092;12.122;2022-07-23T12:00:15;4.45;;;1.40;;
20488;SDS011;10403;54.092;12.122;2022-07-23T12:02:50;2.95;;;1.10;;
20488;SDS011;10403;54.092;12.122;2022-07-23T12:05:39;4.50;;;1.30;;
20488;SDS011;10403;54.092;12.122;2022-07-23T12:08:07;3.17;;;1.02;;
20488;SDS011;10403;54.092;12.122;2022-07-23T12:10:41;1.98;;;0.90;;
20488;SDS011;10403;54.092;12.122;2022-07-23T12:13:14;2.13;;;0.98;;
20488;SDS011;10403;54.092;12.122;2022-07-23T12:15:45;2.53;;;1.25;;
20488;SDS011;10403;54.092;12.122;2022-07-23T12:18:19;3.15;;;1.00;;
20488;SDS011;10403;54.092;12.122;2022-07-23T12:20:51;2.75;;;1.17;;
20488;SDS011;10403;54.092;12.122;2022-07-23T12:23:22;4.00;;;1.02;;
20488;SDS011;10403;54.092;12.122;2022-07-23T12:25:51;3.78;;;1.13;;
20488;SDS011;10403;54.092;12.122;2022-07-23T12:28:27;5.07;;;1.00;;
20488;SDS011;10403;54.092;12.122;2022-07-23T12:30:59;7.43;;;1.10;;
20488;SDS011;10403;54.092;12.122;2022-07-23T12:33:31;1.70;;;0.80;;
20488;SDS011;10403;54.092;12.122;2022-07-23T12:36:02;4.28;;;1.30;;
20488;SDS011;10403;54.092;12.122;2022-07-23T12:38:39;3.72;;;1.20;;
20488;SDS011;10403;54.092;12.122;2022-07-23T12:41:15;5.25;;;1.55;;
20488;SDS011;10403;54.092;12.122;2022-07-23T12:43:44;2.85;;;0.93;;
20488;SDS011;10403;54.092;12.122;2022-07-23T12:46:19;3.85;;;1.30;;
20488;SDS011;10403;54.092;12.122;2022-07-23T12:51:24;5.75;;;1.13;;
20488;SDS011;10403;54.092;12.122;2022-07-23T12:56:33;3.60;;;1.05;;
20488;SDS011;10403;54.092;12.122;2022-07-23T13:01:35;3.70;;;1.27;;
20488;SDS011;10403;54.092;12.122;2022-07-23T13:09:19;8.10;;;1.23;;
20488;SDS011;10403;54.092;12.122;2022-07-23T13:11:51;3.40;;;1.05;;
20488;SDS011;10403;54.092;12.122;2022-07-23T13:14:22;2.60;;;1.23;;
20488;SDS011;10403;54.092;12.122;2022-07-23T13:17:11;3.35;;;1.27;;
20488;SDS011;10403;54.092;12.122;2022-07-23T13:19:38;4.00;;;1.38;;
20488;SDS011;10403;54.092;12.122;2022-07-23T13:22:06;3.30;;;1.40;;
20488;SDS011;10403;54.092;12.122;2022-07-23T13:24:35;6.00;;;1.63;;
20488;SDS011;10403;54.092;12.122;2022-07-23T13:27:05;6.93;;;1.73;;
20488;SDS011;10403;54.092;12.122;2022-07-23T13:29:37;12.07;;;2.08;;
20488;SDS011;10403;54.092;12.122;2022-07-23T13:32:04;2.58;;;0.90;;
20488;SDS011;10403;54.092;12.122;2022-07-23T13:34:38;6.03;;;1.17;;
20488;SDS011;10403;54.092;12.122;2022-07-23T13:37:07;6.55;;;1.67;;
20488;SDS011;10403;54.092;12.122;2022-07-23T13:39:35;3.53;;;1.02;;
20488;SDS011;10403;54.092;12.122;2022-07-23T13:42:04;3.80;;;1.40;;
20488;SDS011;10403;54.092;12.122;2022-07-23T13:44:34;1.70;;;0.80;;
20488;SDS011;10403;54.092;12.122;2022-07-23T13:47:02;4.20;;;1.13;;
20488;SDS011;10403;54.092;12.122;2022-07-23T13:49:49;5.00;;;1.13;;
20488;SDS011;10403;54.092;12.122;2022-07-23T13:52:17;4.90;;;1.13;;
20488;SDS011;10403;54.092;12.122;2022-07-23T13:54:45;3.72;;;1.30;;
20488;SDS011;10403;54.092;12.122;2022-07-23T13:57:12;5.22;;;1.35;;
20488;SDS011;10403;54.092;12.122;2022-07-23T13:59:39;4.70;;;1.13;;
20488;SDS011;10403;54.092;12.122;2022-07-23T14:02:06;3.28;;;1.70;;
20488;SDS011;10403;54.092;12.122;2022-07-23T14:04:53;3.35;;;1.00;;
20488;SDS011;10403;54.092;12.122;2022-07-23T14:07:20;5.78;;;1.20;;
20488;SDS011;10403;54.092;12.122;2022-07-23T14:09:47;4.88;;;1.25;;
20488;SDS011;10403;54.092;12.122;2022-07-23T14:12:15;7.50;;;1.27;;
20488;SDS011;10403;54.092;12.122;2022-07-23T14:14:43;3.35;;;1.10;;
20488;SDS011;10403;54.092;12.122;2022-07-23T14:17:10;7.97;;;1.30;;
20488;SDS011;10403;54.092;12.122;2022-07-23T14:19:37;2.60;;;1.25;;
20488;SDS011;10403;54.092;12.122;2022-07-23T14:22:04;3.60;;;1.13;;
20488;SDS011;10403;54.092;12.122;2022-07-23T14:24:32;5.82;;;1.10;;
20488;SDS011;10403;54.092;12.122;2022-07-23T14:27:01;5.53;;;1.15;;
20488;SDS011;10403;54.092;12.122;2022-07-23T14:29:31;8.82;;;1.42;;
20488;SDS011;10403;54.092;12.122;2022-07-23T14:32:00;2.50;;;1.20;;
20488;SDS011;10403;54.092;12.122;2022-07-23T14:34:29;4.20;;;1.30;;
20488;SDS011;10403;54.092;12.122;2022-07-23T14:36:57;5.38;;;1.38;;
20488;SDS011;10403;54.092;12.122;2022-07-23T14:39:26;4.47;;;0.90;;
20488;SDS011;10403;54.092;12.122;2022-07-23T14:41:53;4.50;;;1.50;;
20488;SDS011;10403;54.092;12.122;2022-07-23T14:44:21;4.43;;;1.10;;
20488;SDS011;10403;54.092;12.122;2022-07-23T14:46:48;2.55;;;0.95;;
20488;SDS011;10403;54.092;12.122;2022-07-23T14:49:16;3.70;;;1.23;;
20488;SDS011;10403;54.092;12.122;2022-07-23T14:51:43;2.85;;;1.30;;
20488;SDS011;10403;54.092;12.122;2022-07-23T14:54:11;3.85;;;1.20;;
20488;SDS011;10403;54.092;12.122;2022-07-23T14:56:38;3.28;;;1.00;;
20488;SDS011;10403;54.092;12.122;2022-07-23T14:59:27;5.72;;;0.90;;
20488;SDS011;10403;54.092;12.122;2022-07-23T15:01:57;4.65;;;1.20;;
20488;SDS011;10403;54.092;12.122;2022-07-23T15:04:24;4.13;;;1.52;;
20488;SDS011;10403;54.092;12.122;2022-07-23T15:07:08;5.50;;;1.20;;
20488;SDS011;10403;54.092;12.122;2022-07-23T15:09:35;4.70;;;1.48;;
20488;SDS011;10403;54.092;12.122;2022-07-23T15:12:02;5.72;;;1.13;;
20488;SDS011;10403;54.092;12.122;2022-07-23T15:14:34;3.03;;;1.13;;
20488;SDS011;10403;54.092;12.122;2022-07-23T15:17:01;7.82;;;1.25;;
20488;SDS011;10403;54.092;12.122;2022-07-23T15:19:28;3.28;;;1.30;;
20488;SDS011;10403;54.092;12.122;2022-07-23T15:21:56;2.40;;;1.00;;
20488;SDS011;10403;54.092;12.122;2022-07-23T15:24:27;4.85;;;1.67;;
20488;SDS011;10403;54.092;12.122;2022-07-23T15:26:54;7.25;;;1.70;;
20488;SDS011;10403;54.092;12.122;2022-07-23T15:29:21;7.22;;;1.65;;
20488;SDS011;10403;54.092;12.122;2022-07-23T15:31:49;4.80;;;1.30;;
20488;SDS011;10403;54.092;12.122;2022-07-23T15:34:24;5.63;;;1.35;;
20488;SDS011;10403;54.092;12.122;2022-07-23T15:36:52;4.15;;;1.20;;
20488;SDS011;10403;54.092;12.122;2022-07-23T15:39:19;8.73;;;1.58;;
20488;SDS011;10403;54.092;12.122;2022-07-23T15:41:46;2.75;;;1.27;;
20488;SDS011;10403;54.092;12.122;2022-07-23T15:44:14;9.32;;;1.40;;